Time;durP1;ratioP1;P1;durP2;ratioP2;P2;SDS_P1;SDS_P2;PMS_P1;PMS_P2;Temp;Humidity;BMP_temperature;BMP_pressure;BME280_temperature;BME280_humidity;BME280_pressure;Samples;Min_cycle;Max_cycle;Signal;HPM_P1;HPM_P2
2022/11/17 00:00:17;;;;;;;23.75;14.70;;;9.30;99.90;;;;;;4973855;28;20070;-85
2022/11/17 00:02:43;;;;;;;23.27;14.70;;;9.30;99.90;;;;;;4974258;28;20106;-85
2022/11/17 00:05:09;;;;;;;23.65;15.75;;;9.30;99.90;;;;;;4973386;28;20376;-85
2022/11/17 00:07:35;;;;;;;21.92;14.20;;;9.30;99.90;;;;;;4972839;28;20098;-85
2022/11/17 00:10:00;;;;;;;21.23;14.68;;;9.30;99.90;;;;;;4973927;28;20078;-83
2022/11/17 00:15:10;;;;;;;20.90;13.98;;;9.30;99.90;;;;;;4969427;28;20477;-85
2022/11/17 00:17:35;;;;;;;21.05;13.95;;;9.30;99.90;;;;;;4974327;28;20129;-84
2022/11/17 00:22:45;;;;;;;23.02;14.38;;;9.30;99.90;;;;;;4974384;28;20051;-84
2022/11/17 00:25:10;;;;;;;24.35;13.60;;;9.30;99.90;;;;;;4973769;28;20046;-84
2022/11/17 00:27:36;;;;;;;21.33;13.77;;;9.30;99.90;;;;;;4973495;28;20046;-83
2022/11/17 00:30:02;;;;;;;21.38;13.65;;;9.30;99.90;;;;;;4973466;28;20047;-84
2022/11/17 00:35:12;;;;;;;21.58;13.32;;;9.30;99.90;;;;;;4974277;28;20043;-84
2022/11/17 00:40:42;;;;;;;21.02;12.75;;;9.30;99.90;;;;;;4968329;28;20054;-83
2022/11/17 00:43:07;;;;;;;22.33;12.85;;;9.30;99.90;;;;;;4975661;28;20066;-84
2022/11/17 00:45:33;;;;;;;19.33;12.90;;;9.30;99.90;;;;;;4971709;28;20035;-84
2022/11/17 00:47:58;;;;;;;18.70;12.77;;;9.30;99.90;;;;;;4973220;28;20042;-84
2022/11/17 00:50:24;;;;;;;21.02;12.82;;;9.30;99.90;;;;;;4972799;28;20482;-83
2022/11/17 00:52:50;;;;;;;20.27;13.10;;;9.30;99.90;;;;;;4971194;28;20043;-83
2022/11/17 00:55:15;;;;;;;24.50;12.57;;;9.30;99.90;;;;;;4972859;28;20035;-83
2022/11/17 00:57:41;;;;;;;17.77;12.10;;;9.30;99.90;;;;;;4971737;28;20130;-83
2022/11/17 01:00:07;;;;;;;20.83;12.35;;;9.30;99.90;;;;;;4973456;28;20502;-84
2022/11/17 01:02:33;;;;;;;18.13;11.85;;;9.30;99.90;;;;;;4974031;28;20566;-83
2022/11/17 01:04:58;;;;;;;18.65;11.80;;;9.30;99.90;;;;;;4977485;28;20051;-84
2022/11/17 01:07:24;;;;;;;18.02;12.07;;;9.30;99.90;;;;;;4980937;28;20501;-83
2022/11/17 01:09:50;;;;;;;18.33;12.18;;;9.30;99.90;;;;;;4992651;28;20042;-83
2022/11/17 01:12:15;;;;;;;18.80;11.77;;;9.30;99.90;;;;;;4994082;28;20410;-84
2022/11/17 01:14:41;;;;;;;20.58;12.88;;;9.30;99.90;;;;;;5006778;28;20084;-83
2022/11/17 01:17:07;;;;;;;16.80;11.85;;;9.30;99.90;;;;;;5000418;28;20406;-84
2022/11/17 01:19:32;;;;;;;18.63;11.60;;;9.30;99.90;;;;;;4992047;28;20061;-83
2022/11/17 01:21:58;;;;;;;20.77;11.85;;;9.30;99.90;;;;;;4990703;28;20042;-84
2022/11/17 01:24:23;;;;;;;17.27;11.60;;;9.30;99.90;;;;;;5008552;28;20500;-83
2022/11/17 01:26:50;;;;;;;15.80;11.88;;;9.30;99.90;;;;;;4983140;28;20043;-83
2022/11/17 01:29:16;;;;;;;18.20;11.32;;;9.30;99.90;;;;;;4979510;28;20053;-85
2022/11/17 01:31:42;;;;;;;16.67;11.00;;;9.30;99.90;;;;;;5012486;28;20038;-84
2022/11/17 01:34:08;;;;;;;18.48;11.77;;;9.30;99.90;;;;;;4988151;28;20046;-84
2022/11/17 01:39:22;;;;;;;16.83;10.57;;;9.30;99.90;;;;;;4998340;28;20061;-83
2022/11/17 01:41:48;;;;;;;15.70;11.60;;;9.30;99.90;;;;;;4997297;28;20049;-84
2022/11/17 01:44:51;;;;;;;15.75;10.73;;;9.30;99.90;;;;;;4994794;28;20045;-84
2022/11/17 01:47:22;;;;;;;19.58;11.73;;;9.30;99.90;;;;;;4986082;28;20074;-84
2022/11/17 01:49:53;;;;;;;15.00;11.10;;;9.20;99.90;;;;;;4978782;28;20053;-85
2022/11/17 01:52:18;;;;;;;15.57;10.70;;;9.20;99.90;;;;;;4979816;28;20077;-84
2022/11/17 01:54:47;;;;;;;15.07;10.25;;;9.30;99.90;;;;;;4988360;28;20033;-83
2022/11/17 01:57:19;;;;;;;14.60;10.10;;;9.30;99.90;;;;;;5015999;28;20045;-83
2022/11/17 01:59:54;;;;;;;17.08;9.85;;;9.30;99.90;;;;;;4996696;28;20602;-83
2022/11/17 02:02:19;;;;;;;15.57;10.27;;;9.20;99.90;;;;;;4996470;28;20121;-83
2022/11/17 02:05:00;;;;;;;16.73;10.70;;;9.20;99.90;;;;;;4978808;28;20100;-83
2022/11/17 02:07:29;;;;;;;14.68;10.27;;;9.30;99.90;;;;;;4978896;28;20390;-83
2022/11/17 02:09:56;;;;;;;14.38;9.73;;;9.20;99.90;;;;;;5014203;28;20046;-83
2022/11/17 02:12:25;;;;;;;14.90;10.18;;;9.20;99.90;;;;;;4996461;28;20045;-82
2022/11/17 02:14:51;;;;;;;16.13;11.10;;;9.30;99.90;;;;;;4997074;28;20121;-84
2022/11/17 02:17:18;;;;;;;14.90;10.63;;;9.20;99.90;;;;;;4978497;28;20053;-84
2022/11/17 02:19:53;;;;;;;15.63;10.40;;;9.20;99.90;;;;;;4979670;28;20096;-83
2022/11/17 02:22:47;;;;;;;13.25;9.82;;;9.20;99.90;;;;;;4983506;28;20078;-84
2022/11/17 02:25:50;;;;;;;14.98;10.20;;;9.20;99.90;;;;;;4993347;28;20053;-84
2022/11/17 02:28:39;;;;;;;16.13;9.80;;;9.20;99.90;;;;;;4978795;28;20124;-84
2022/11/17 02:31:40;;;;;;;16.08;10.02;;;9.20;99.90;;;;;;4988769;28;20052;-84
2022/11/17 02:34:26;;;;;;;15.93;10.23;;;9.20;99.90;;;;;;4980504;28;20089;-84
2022/11/17 02:37:06;;;;;;;15.40;10.18;;;9.20;99.90;;;;;;4995098;28;20406;-84
2022/11/17 02:39:45;;;;;;;15.40;10.27;;;9.20;99.90;;;;;;4974111;28;20045;-83
2022/11/17 02:44:02;;;;;;;13.43;10.00;;;9.20;99.90;;;;;;4994673;28;20055;-84
2022/11/17 02:45:16;;;;;;;15.20;9.63;;;9.20;99.90;;;;;;4988069;28;20133;-83
2022/11/17 02:47:45;;;;;;;13.43;10.23;;;9.20;99.90;;;;;;4982239;28;20104;-83
2022/11/17 02:50:12;;;;;;;14.70;10.40;;;9.20;99.90;;;;;;4979522;28;20050;-84
2022/11/17 02:52:38;;;;;;;15.88;10.20;;;9.20;99.90;;;;;;4978007;28;20046;-84
2022/11/17 02:55:07;;;;;;;14.55;10.20;;;9.20;99.90;;;;;;4993479;28;20042;-83
2022/11/17 02:57:38;;;;;;;15.95;9.90;;;9.20;99.90;;;;;;4995445;28;20046;-83
2022/11/17 03:00:06;;;;;;;15.95;10.57;;;9.20;99.90;;;;;;4994710;28;20125;-85
2022/11/17 03:02:52;;;;;;;14.57;9.70;;;9.20;99.90;;;;;;4995509;28;20038;-85
2022/11/17 03:05:25;;;;;;;16.50;10.85;;;9.20;99.90;;;;;;4977835;28;20050;-83
2022/11/17 03:08:23;;;;;;;18.00;9.82;;;9.20;99.90;;;;;;4995304;28;20049;-84
2022/11/17 03:10:55;;;;;;;15.13;10.23;;;9.20;99.90;;;;;;4990871;28;20475;-83
2022/11/17 03:13:34;;;;;;;13.32;9.98;;;9.20;99.90;;;;;;4977628;28;20457;-84
2022/11/17 03:16:11;;;;;;;14.77;9.82;;;9.20;99.90;;;;;;4988728;28;20093;-84
2022/11/17 03:19:02;;;;;;;14.82;9.90;;;9.10;99.90;;;;;;4989103;28;20042;-83
2022/11/17 03:21:35;;;;;;;12.63;9.15;;;9.10;99.90;;;;;;4992682;28;20508;-84
2022/11/17 03:24:14;;;;;;;14.30;10.15;;;9.10;99.90;;;;;;4993262;28;20073;-84
2022/11/17 03:26:44;;;;;;;14.20;9.60;;;9.10;99.90;;;;;;4977784;28;20512;-83
2022/11/17 03:29:13;;;;;;;13.73;9.88;;;9.10;99.90;;;;;;4994507;28;20089;-83
2022/11/17 03:31:42;;;;;;;14.65;9.93;;;9.10;99.90;;;;;;4988063;28;20047;-82
2022/11/17 03:34:12;;;;;;;16.60;9.88;;;9.10;99.90;;;;;;4987491;28;20042;-83
2022/11/17 03:36:42;;;;;;;12.77;9.30;;;9.10;99.90;;;;;;4994313;28;20050;-83
2022/11/17 03:39:31;;;;;;;12.77;9.63;;;9.10;99.90;;;;;;4994782;28;20085;-83
2022/11/17 03:42:04;;;;;;;14.85;9.38;;;9.10;99.90;;;;;;4993174;28;20100;-83
2022/11/17 03:44:33;;;;;;;13.07;10.10;;;9.10;99.90;;;;;;4977599;28;20088;-83
2022/11/17 03:47:02;;;;;;;12.25;9.18;;;9.10;99.90;;;;;;4994170;28;20491;-82
2022/11/17 03:49:46;;;;;;;12.50;9.02;;;9.00;99.90;;;;;;4957693;28;20437;-83
2022/11/17 03:52:12;;;;;;;13.63;9.50;;;9.00;99.90;;;;;;4993529;28;20038;-83
2022/11/17 03:54:39;;;;;;;13.30;9.43;;;9.00;99.90;;;;;;4993623;28;20382;-83
2022/11/17 03:57:30;;;;;;;13.45;9.20;;;9.00;99.90;;;;;;4980451;28;20042;-81
2022/11/17 04:00:05;;;;;;;13.20;9.23;;;9.00;99.90;;;;;;4988851;28;20069;-81
2022/11/17 04:02:31;;;;;;;12.55;8.93;;;9.00;99.90;;;;;;4985761;28;20058;-82
2022/11/17 04:05:06;;;;;;;12.13;8.65;;;9.00;99.90;;;;;;5011504;28;20119;-82
2022/11/17 04:07:40;;;;;;;11.77;8.57;;;9.00;99.90;;;;;;4995497;28;20502;-81
2022/11/17 04:10:09;;;;;;;11.05;8.18;;;9.00;99.90;;;;;;5003598;28;20035;-81
2022/11/17 04:18:18;;;;;;;11.90;8.18;;;9.00;99.90;;;;;;4982145;28;20494;-82
2022/11/17 04:20:44;;;;;;;10.50;8.30;;;9.00;99.90;;;;;;4976692;28;20046;-81
2022/11/17 04:23:14;;;;;;;11.40;8.23;;;9.00;99.90;;;;;;5004888;28;20052;-82
2022/11/17 04:28:38;;;;;;;10.80;7.97;;;9.00;99.90;;;;;;4977454;28;20057;-82
2022/11/17 04:31:11;;;;;;;11.55;8.15;;;8.90;99.90;;;;;;5008950;28;20085;-82
2022/11/17 04:33:48;;;;;;;11.70;7.97;;;8.90;99.90;;;;;;4977582;28;20073;-82
2022/11/17 04:36:22;;;;;;;10.43;7.63;;;8.90;99.90;;;;;;4976816;28;20398;-82
2022/11/17 04:38:51;;;;;;;13.30;7.80;;;8.90;99.90;;;;;;5011755;28;20077;-81
2022/11/17 04:44:04;;;;;;;10.80;7.53;;;8.90;99.90;;;;;;4993150;28;20407;-80
2022/11/17 04:46:32;;;;;;;10.95;7.85;;;8.90;99.90;;;;;;4996248;28;20042;-81
2022/11/17 04:48:58;;;;;;;12.38;7.43;;;8.90;99.90;;;;;;4997776;28;20467;-81
2022/11/17 04:51:25;;;;;;;9.50;7.10;;;8.90;99.90;;;;;;4999234;28;20065;-81
2022/11/17 04:53:50;;;;;;;11.02;7.60;;;8.90;99.90;;;;;;4999830;28;20039;-81
2022/11/17 04:56:18;;;;;;;10.65;7.38;;;8.90;99.90;;;;;;5003396;28;20504;-80
2022/11/17 04:58:44;;;;;;;9.43;6.82;;;8.90;99.90;;;;;;5007695;28;20041;-81
2022/11/17 05:01:12;;;;;;;9.45;6.97;;;8.90;99.90;;;;;;4984964;28;20402;-81
2022/11/17 05:03:47;;;;;;;9.60;7.20;;;8.90;99.90;;;;;;4992918;28;20146;-81
2022/11/17 05:06:19;;;;;;;10.63;7.00;;;8.90;99.90;;;;;;4999817;28;20039;-81
2022/11/17 05:08:45;;;;;;;9.38;7.50;;;8.90;99.90;;;;;;4979574;28;20027;-81
2022/11/17 05:13:57;;;;;;;10.13;6.95;;;8.80;99.90;;;;;;4957950;28;20054;-81
2022/11/17 05:19:11;;;;;;;9.70;6.80;;;8.80;99.90;;;;;;4979700;28;20042;-81
2022/11/17 05:21:36;;;;;;;10.48;7.47;;;8.80;99.90;;;;;;5008560;28;20042;-81
2022/11/17 05:24:03;;;;;;;10.05;7.03;;;8.80;99.90;;;;;;4976189;28;20045;-81
2022/11/17 05:26:33;;;;;;;9.63;7.05;;;8.80;99.90;;;;;;4992713;28;20031;-81
2022/11/17 05:29:00;;;;;;;9.05;7.30;;;8.80;99.90;;;;;;5005392;28;20110;-81
2022/11/17 05:31:27;;;;;;;9.95;7.13;;;8.80;99.90;;;;;;4981573;28;20125;-83
2022/11/17 05:33:54;;;;;;;8.98;7.32;;;8.80;99.90;;;;;;4995097;28;20043;-82
2022/11/17 05:36:21;;;;;;;9.90;7.32;;;8.80;99.90;;;;;;5005634;28;20086;-84
2022/11/17 05:38:47;;;;;;;10.10;7.35;;;8.70;99.90;;;;;;4994733;28;20046;-83
2022/11/17 05:41:15;;;;;;;8.57;6.88;;;8.70;99.90;;;;;;4973518;28;20461;-82
2022/11/17 05:43:41;;;;;;;9.48;6.95;;;8.70;99.90;;;;;;4989304;28;20045;-82
2022/11/17 05:46:06;;;;;;;8.32;6.78;;;8.70;99.90;;;;;;4989651;28;20508;-85
2022/11/17 05:48:38;;;;;;;9.30;7.10;;;8.70;99.90;;;;;;4973229;28;20459;-91
2022/11/17 05:51:04;;;;;;;10.30;7.25;;;8.70;99.90;;;;;;4956611;28;20043;-88
2022/11/17 05:53:35;;;;;;;9.15;7.28;;;8.70;99.90;;;;;;4956678;28;20393;-87
2022/11/17 05:56:24;;;;;;;9.00;6.88;;;8.70;99.90;;;;;;4973008;28;20085;-82
2022/11/17 05:58:54;;;;;;;8.45;7.00;;;8.70;99.90;;;;;;4973496;28;20086;-82
2022/11/17 06:01:21;;;;;;;9.18;7.05;;;8.70;99.90;;;;;;4965985;28;20057;-82
2022/11/17 06:03:52;;;;;;;9.38;6.53;;;8.60;99.90;;;;;;5012002;28;20097;-83
2022/11/17 06:06:18;;;;;;;9.20;6.97;;;8.60;99.90;;;;;;4975841;28;20050;-83
2022/11/17 06:08:45;;;;;;;9.75;7.18;;;8.70;99.90;;;;;;4976315;28;20218;-83
2022/11/17 06:11:11;;;;;;;9.05;6.40;;;8.60;99.90;;;;;;4988328;28;20169;-83
2022/11/17 06:13:37;;;;;;;9.15;7.07;;;8.60;99.90;;;;;;4996479;28;20496;-83
2022/11/17 06:16:05;;;;;;;8.90;6.57;;;8.60;99.90;;;;;;4981613;28;20058;-85
2022/11/17 06:18:36;;;;;;;7.93;6.07;;;8.60;99.90;;;;;;4999600;28;20530;-84
2022/11/17 06:21:02;;;;;;;9.55;7.05;;;8.60;99.90;;;;;;5005922;28;20039;-84
2022/11/17 06:23:32;;;;;;;8.45;6.53;;;8.60;99.90;;;;;;4983545;28;20046;-84
2022/11/17 06:26:04;;;;;;;7.82;6.13;;;8.50;99.90;;;;;;4965363;28;20422;-83
2022/11/17 06:28:33;;;;;;;7.95;6.20;;;8.50;99.90;;;;;;4993353;28;20067;-83
2022/11/17 06:30:58;;;;;;;8.00;6.03;;;8.50;99.90;;;;;;4984349;28;20053;-83
2022/11/17 06:33:27;;;;;;;9.75;5.93;;;8.50;99.90;;;;;;4988378;28;20490;-82
2022/11/17 06:35:53;;;;;;;7.72;5.72;;;8.50;99.90;;;;;;4970360;28;20449;-82
2022/11/17 06:38:19;;;;;;;9.18;5.95;;;8.50;99.90;;;;;;4958846;28;20058;-82
2022/11/17 06:40:44;;;;;;;6.78;5.20;;;8.50;99.90;;;;;;4976990;28;20817;-83
2022/11/17 06:43:10;;;;;;;7.85;5.95;;;8.50;99.90;;;;;;4974973;28;20050;-82
2022/11/17 06:45:41;;;;;;;9.57;5.25;;;8.40;99.90;;;;;;4975798;28;20043;-82
2022/11/17 06:48:08;;;;;;;6.82;5.57;;;8.40;99.90;;;;;;4958796;28;20096;-81
2022/11/17 06:50:34;;;;;;;7.07;5.18;;;8.40;99.90;;;;;;4960135;28;20054;-82
2022/11/17 06:53:02;;;;;;;6.93;5.40;;;8.40;99.90;;;;;;4960909;28;20043;-83
2022/11/17 06:55:28;;;;;;;8.23;5.30;;;8.40;99.90;;;;;;4958754;28;20043;-82
2022/11/17 06:58:06;;;;;;;7.30;5.00;;;8.40;99.90;;;;;;4978674;28;20073;-82
2022/11/17 07:00:32;;;;;;;8.20;5.65;;;8.40;99.90;;;;;;4958765;28;20043;-82
2022/11/17 07:03:06;;;;;;;7.63;5.25;;;8.40;99.90;;;;;;4984923;28;20046;-83
2022/11/17 07:05:33;;;;;;;7.15;5.32;;;8.40;99.90;;;;;;4994422;28;20035;-82
2022/11/17 07:08:00;;;;;;;7.80;5.15;;;8.40;99.90;;;;;;4999089;28;20138;-82
2022/11/17 07:10:27;;;;;;;8.68;5.15;;;8.40;99.90;;;;;;4975594;28;20491;-81
2022/11/17 07:12:53;;;;;;;6.47;5.13;;;8.40;99.90;;;;;;4965861;28;20505;-84
2022/11/17 07:15:19;;;;;;;7.05;4.90;;;8.40;99.90;;;;;;4979890;28;20077;-83
2022/11/17 07:17:45;;;;;;;7.15;5.20;;;8.40;99.90;;;;;;4975266;28;20047;-84
2022/11/17 07:20:11;;;;;;;6.93;5.30;;;8.40;99.90;;;;;;4967329;28;20066;-86
2022/11/17 07:22:37;;;;;;;6.18;4.78;;;8.40;99.90;;;;;;4969691;28;20038;-85
2022/11/17 07:25:03;;;;;;;7.05;5.15;;;8.40;99.90;;;;;;4966542;28;20042;-84
2022/11/17 07:27:29;;;;;;;6.13;4.65;;;8.40;99.90;;;;;;4958882;28;20128;-85
2022/11/17 07:29:55;;;;;;;7.18;5.30;;;8.40;99.90;;;;;;4975296;28;20071;-84
2022/11/17 07:32:21;;;;;;;7.22;5.00;;;8.40;99.90;;;;;;4964324;28;20046;-84
2022/11/17 07:34:47;;;;;;;6.88;4.88;;;8.40;99.90;;;;;;4985462;28;20042;-85
2022/11/17 07:37:13;;;;;;;5.82;4.30;;;8.40;99.90;;;;;;4965644;28;20491;-84
2022/11/17 07:39:39;;;;;;;6.97;5.10;;;8.40;99.90;;;;;;4967977;28;20475;-84
2022/11/17 07:42:04;;;;;;;6.18;4.57;;;8.40;99.90;;;;;;4949194;28;20388;-85
2022/11/17 07:44:30;;;;;;;6.38;4.43;;;8.40;99.90;;;;;;4988532;28;20686;-84
2022/11/17 07:46:56;;;;;;;6.78;4.90;;;8.40;99.90;;;;;;4990215;28;20079;-83
2022/11/17 07:49:21;;;;;;;6.03;4.65;;;8.40;99.90;;;;;;4976093;28;20093;-84
2022/11/17 07:51:47;;;;;;;5.35;3.85;;;8.30;99.90;;;;;;4992753;28;20389;-84
2022/11/17 07:54:12;;;;;;;5.75;4.32;;;8.30;99.90;;;;;;4964746;28;20043;-84
2022/11/17 07:56:40;;;;;;;6.43;4.40;;;8.30;99.90;;;;;;4973144;28;20057;-84
2022/11/17 07:59:06;;;;;;;6.55;4.25;;;8.30;99.90;;;;;;4969105;28;20105;-85
2022/11/17 08:01:31;;;;;;;6.40;4.30;;;8.20;99.90;;;;;;4973613;28;20039;-83
2022/11/17 08:03:57;;;;;;;7.18;4.22;;;8.30;99.90;;;;;;4982996;28;20145;-82
2022/11/17 08:06:23;;;;;;;5.53;4.30;;;8.30;99.90;;;;;;4990800;28;20047;-82
2022/11/17 08:08:50;;;;;;;5.57;3.97;;;8.30;99.90;;;;;;4991815;28;20117;-82
2022/11/17 08:11:15;;;;;;;6.97;3.92;;;8.30;99.90;;;;;;4978939;28;20520;-81
2022/11/17 08:13:41;;;;;;;6.32;4.10;;;8.30;99.90;;;;;;4992186;28;20129;-83
2022/11/17 08:16:08;;;;;;;6.75;4.13;;;8.30;99.90;;;;;;5002498;28;20367;-83
2022/11/17 08:18:34;;;;;;;5.32;3.83;;;8.30;99.90;;;;;;4994155;28;20049;-84
2022/11/17 08:21:08;;;;;;;5.70;3.88;;;8.30;99.90;;;;;;4976915;28;20045;-83
2022/11/17 08:23:34;;;;;;;5.95;4.18;;;8.30;99.90;;;;;;4988170;28;20050;-83
2022/11/17 08:26:02;;;;;;;5.95;3.88;;;8.30;99.90;;;;;;4983170;28;20042;-83
2022/11/17 08:28:28;;;;;;;6.55;4.03;;;8.30;99.90;;;;;;4992493;28;20035;-81
2022/11/17 08:30:53;;;;;;;5.80;4.13;;;8.20;99.90;;;;;;4988486;28;20092;-81
2022/11/17 08:33:19;;;;;;;6.07;4.03;;;8.20;99.90;;;;;;4993780;28;20165;-81
2022/11/17 08:35:44;;;;;;;6.40;3.85;;;8.20;99.90;;;;;;4977509;28;20498;-82
2022/11/17 08:38:11;;;;;;;6.00;3.85;;;8.30;99.90;;;;;;4992095;28;20053;-81
2022/11/17 08:40:37;;;;;;;5.68;3.85;;;8.20;99.90;;;;;;4992539;28;20046;-83
2022/11/17 08:43:03;;;;;;;6.20;4.40;;;8.20;99.90;;;;;;4975596;28;20038;-80
2022/11/17 08:45:30;;;;;;;6.22;4.10;;;8.20;99.90;;;;;;4993083;28;20401;-80
2022/11/17 08:47:56;;;;;;;6.25;4.28;;;8.20;99.90;;;;;;4992465;28;20134;-80
2022/11/17 08:50:21;;;;;;;6.00;4.22;;;8.20;99.90;;;;;;4975121;28;20097;-81
2022/11/17 08:52:47;;;;;;;6.47;4.57;;;8.20;99.90;;;;;;4976423;28;20497;-80
2022/11/17 08:55:13;;;;;;;5.97;3.75;;;8.20;99.90;;;;;;4983207;28;20085;-81
2022/11/17 08:57:38;;;;;;;6.00;3.90;;;8.20;99.90;;;;;;4977614;28;20038;-81
2022/11/17 09:00:08;;;;;;;6.30;3.78;;;8.20;99.90;;;;;;5001088;28;20038;-82
2022/11/17 09:02:33;;;;;;;6.32;4.05;;;8.20;99.90;;;;;;4974374;28;20054;-82
2022/11/17 09:04:59;;;;;;;7.22;4.60;;;8.20;99.90;;;;;;4974962;28;20047;-82
2022/11/17 09:07:24;;;;;;;5.45;3.88;;;8.20;99.90;;;;;;4976074;28;20042;-83
2022/11/17 09:09:50;;;;;;;5.97;3.95;;;8.20;99.90;;;;;;4972685;28;20085;-82
2022/11/17 09:12:17;;;;;;;6.18;4.38;;;8.20;99.90;;;;;;4984582;28;20054;-82
2022/11/17 09:14:42;;;;;;;5.78;4.10;;;8.20;99.90;;;;;;4993298;28;20046;-82
2022/11/17 09:17:08;;;;;;;5.35;3.95;;;8.20;99.90;;;;;;4975279;28;20046;-82
2022/11/17 09:19:34;;;;;;;5.45;3.72;;;8.20;99.90;;;;;;5006053;28;20049;-83
2022/11/17 09:21:59;;;;;;;5.85;3.90;;;8.20;99.90;;;;;;4992559;28;20061;-82
2022/11/17 09:24:25;;;;;;;6.10;4.07;;;8.20;99.90;;;;;;4981369;28;20081;-82
2022/11/17 09:26:56;;;;;;;6.70;4.05;;;8.20;99.90;;;;;;4976680;28;20042;-82
2022/11/17 09:29:22;;;;;;;5.63;3.80;;;8.20;99.90;;;;;;4980375;28;20047;-82
2022/11/17 09:31:48;;;;;;;5.47;3.78;;;8.20;99.90;;;;;;4975431;28;20083;-82
2022/11/17 09:34:14;;;;;;;5.60;3.65;;;8.20;99.90;;;;;;4992750;28;20082;-82
2022/11/17 09:36:41;;;;;;;6.03;3.92;;;8.20;99.90;;;;;;4992234;28;20483;-83
2022/11/17 09:39:06;;;;;;;5.72;3.55;;;8.30;99.90;;;;;;4994494;28;20153;-82
2022/11/17 09:41:45;;;;;;;5.70;3.70;;;8.20;99.90;;;;;;4998310;28;20121;-83
2022/11/17 09:44:25;;;;;;;5.75;3.80;;;8.20;99.90;;;;;;4999174;28;20132;-82
2022/11/17 09:47:05;;;;;;;5.15;3.47;;;8.20;99.90;;;;;;4977527;28;20552;-81
2022/11/17 09:49:34;;;;;;;5.15;3.40;;;8.20;99.90;;;;;;4989638;28;20136;-81
2022/11/17 09:52:20;;;;;;;5.05;3.63;;;8.20;99.90;;;;;;4979497;28;20038;-81
2022/11/17 09:54:56;;;;;;;7.35;3.90;;;8.20;99.90;;;;;;4985661;28;20125;-82
2022/11/17 09:57:37;;;;;;;6.07;3.83;;;8.20;99.90;;;;;;4997549;28;20069;-83
2022/11/17 10:00:14;;;;;;;5.13;3.67;;;8.20;99.90;;;;;;4985603;28;20072;-82
2022/11/17 10:02:43;;;;;;;6.07;3.45;;;8.20;99.90;;;;;;4983930;28;20054;-83
2022/11/17 10:05:13;;;;;;;4.65;3.22;;;8.20;99.90;;;;;;4996014;28;20059;-83
2022/11/17 10:07:48;;;;;;;5.03;3.15;;;8.20;99.90;;;;;;5009120;28;20486;-84
2022/11/17 10:10:20;;;;;;;5.07;3.17;;;8.20;99.90;;;;;;4986403;28;20074;-82
2022/11/17 10:12:51;;;;;;;5.53;3.40;;;8.20;99.90;;;;;;4990599;28;20424;-83
2022/11/17 10:15:28;;;;;;;5.82;3.00;;;8.20;99.90;;;;;;4995638;28;20060;-83
2022/11/17 10:17:53;;;;;;;6.68;3.28;;;8.20;99.90;;;;;;4979289;28;20125;-82
2022/11/17 10:20:20;;;;;;;5.20;3.28;;;8.20;99.90;;;;;;4985549;28;20482;-83
2022/11/17 10:22:47;;;;;;;4.82;3.20;;;8.20;99.90;;;;;;4981114;28;20053;-82
2022/11/17 10:25:22;;;;;;;4.75;3.03;;;8.20;99.90;;;;;;4972958;28;20052;-82
2022/11/17 10:27:52;;;;;;;4.00;2.58;;;8.20;99.90;;;;;;4993399;28;20133;-83
2022/11/17 10:30:18;;;;;;;4.70;2.95;;;8.20;99.90;;;;;;4984848;28;20512;-83
2022/11/17 10:32:49;;;;;;;5.05;2.78;;;8.20;99.90;;;;;;4995539;28;20129;-82
2022/11/17 10:35:17;;;;;;;5.03;2.80;;;8.20;99.90;;;;;;4991956;28;20081;-83
2022/11/17 10:38:00;;;;;;;5.13;2.70;;;8.20;99.90;;;;;;4971696;28;20491;-82
2022/11/17 10:40:32;;;;;;;4.72;3.00;;;8.20;99.90;;;;;;4984328;28;20054;-82
2022/11/17 10:43:00;;;;;;;6.43;2.70;;;8.20;99.90;;;;;;4994208;28;20065;-82
2022/11/17 10:49:03;;;;;;;4.80;2.67;;;8.20;99.90;;;;;;5306870;23;20025;-90
2022/11/17 10:51:32;;;;;;;5.32;2.60;;;8.20;99.90;;;;;;4923257;29;20122;-83
2022/11/17 10:54:16;;;;;;;7.03;2.95;;;8.20;99.90;;;;;;4956076;28;20134;-82
2022/11/17 10:56:48;;;;;;;4.35;2.30;;;8.20;99.90;;;;;;4938280;29;20102;-83
2022/11/17 10:59:32;;;;;;;6.72;2.50;;;8.20;99.90;;;;;;4938381;29;20043;-82
2022/11/17 11:02:33;;;;;;;4.43;2.45;;;8.20;99.90;;;;;;4953210;29;20043;-83
2022/11/17 11:05:09;;;;;;;5.00;2.70;;;8.20;99.90;;;;;;4936923;29;20047;-83
2022/11/17 11:07:35;;;;;;;4.20;2.53;;;8.20;99.90;;;;;;4936524;29;20039;-83
2022/11/17 11:10:28;;;;;;;4.38;2.38;;;8.20;99.90;;;;;;4937003;29;20097;-82
2022/11/17 11:13:13;;;;;;;3.75;2.30;;;8.20;99.90;;;;;;4939841;29;20054;-82
2022/11/17 11:15:39;;;;;;;4.38;2.40;;;8.30;99.90;;;;;;4939550;29;20050;-83
2022/11/17 11:18:11;;;;;;;4.63;2.30;;;8.20;99.90;;;;;;4934681;28;20411;-83
2022/11/17 11:20:40;;;;;;;3.83;2.00;;;8.30;99.90;;;;;;4955694;28;20514;-83
2022/11/17 11:23:18;;;;;;;4.07;2.47;;;8.30;99.90;;;;;;4937176;29;20053;-83
2022/11/17 11:26:01;;;;;;;3.95;2.13;;;8.30;99.90;;;;;;4936211;29;20057;-82
2022/11/17 11:28:45;;;;;;;3.20;1.95;;;8.30;99.90;;;;;;4934621;29;20043;-82
2022/11/17 11:31:38;;;;;;;4.03;2.13;;;8.30;99.90;;;;;;4955676;28;20047;-82
2022/11/17 11:34:26;;;;;;;;;;;8.30;99.90;;;;;;4954962;28;20119;-82
2022/11/17 11:37:11;;;;;;;3.00;1.80;;;8.30;99.90;;;;;;4948178;28;20009;-82
2022/11/17 11:39:57;;;;;;;3.70;1.90;;;8.30;99.90;;;;;;4946572;28;20069;-82
2022/11/17 11:42:41;;;;;;;4.15;2.00;;;8.30;99.90;;;;;;4937420;29;20063;-82
2022/11/17 11:45:16;;;;;;;3.80;1.95;;;8.30;99.90;;;;;;4937744;28;20551;-82
2022/11/17 11:47:58;;;;;;;3.92;2.20;;;8.30;99.90;;;;;;4937048;29;20411;-82
2022/11/17 11:50:27;;;;;;;3.95;2.20;;;8.30;99.90;;;;;;4969421;28;20054;-82
2022/11/17 11:53:10;;;;;;;3.75;2.20;;;8.40;99.90;;;;;;4973709;28;20054;-82
2022/11/17 11:55:38;;;;;;;5.45;2.47;;;8.40;99.90;;;;;;4973241;28;20092;-83
2022/11/17 11:58:19;;;;;;;3.90;2.20;;;8.40;99.90;;;;;;4955933;28;20035;-84
2022/11/17 12:00:46;;;;;;;5.13;2.30;;;8.40;99.90;;;;;;4954469;28;20089;-80
2022/11/17 12:03:22;;;;;;;4.35;2.22;;;8.40;99.90;;;;;;4951302;28;20042;-81
2022/11/17 12:05:53;;;;;;;4.13;2.10;;;8.40;99.90;;;;;;4951825;28;20549;-81
2022/11/17 12:08:53;;;;;;;3.78;2.05;;;8.40;99.90;;;;;;4955665;28;20109;-81
2022/11/17 12:14:05;;;;;;;3.50;2.00;;;8.40;99.90;;;;;;4956352;28;20514;-80
2022/11/17 12:16:33;;;;;;;3.15;1.90;;;8.40;99.90;;;;;;4976128;28;20145;-81
2022/11/17 12:18:59;;;;;;;3.40;2.15;;;8.40;99.90;;;;;;4956467;28;20109;-81
2022/11/17 12:21:26;;;;;;;3.55;2.10;;;8.40;99.90;;;;;;4986453;28;20034;-81
2022/11/17 12:24:10;;;;;;;3.85;2.10;;;8.40;99.90;;;;;;4963022;28;20039;-81
2022/11/17 12:26:37;;;;;;;4.07;2.15;;;8.40;99.90;;;;;;4973749;28;20045;-81
2022/11/17 12:29:21;;;;;;;3.45;1.90;;;8.40;99.90;;;;;;4960296;28;20145;-80
2022/11/17 12:31:51;;;;;;;3.45;1.90;;;8.40;99.90;;;;;;4956251;28;20047;-81
2022/11/17 12:34:21;;;;;;;3.83;1.90;;;8.40;99.90;;;;;;4973280;28;20042;-81
2022/11/17 12:37:14;;;;;;;3.75;2.15;;;8.40;99.90;;;;;;4972252;28;20054;-81
2022/11/17 12:40:07;;;;;;;5.78;2.30;;;8.50;99.90;;;;;;4973293;28;20114;-81
2022/11/17 12:42:35;;;;;;;3.20;1.90;;;8.50;99.90;;;;;;4954603;28;20142;-80
2022/11/17 12:45:11;;;;;;;3.63;2.22;;;8.50;99.90;;;;;;4956382;28;20082;-80
2022/11/17 12:47:43;;;;;;;4.45;1.70;;;8.50;99.90;;;;;;4959586;28;20393;-81
2022/11/17 12:50:17;;;;;;;3.53;1.80;;;8.50;99.90;;;;;;4973696;28;20053;-81
2022/11/17 12:52:53;;;;;;;4.50;2.20;;;8.60;99.90;;;;;;4977836;28;20046;-81
2022/11/17 12:55:31;;;;;;;3.83;2.40;;;8.60;99.90;;;;;;4980175;28;20070;-81
2022/11/17 12:58:18;;;;;;;4.15;1.92;;;8.60;99.90;;;;;;4972168;28;20069;-81
2022/11/17 13:01:08;;;;;;;4.65;2.08;;;8.60;99.90;;;;;;4955172;28;20042;-81
2022/11/17 13:03:36;;;;;;;2.95;1.83;;;8.60;99.90;;;;;;4970667;28;20065;-81
2022/11/17 13:06:10;;;;;;;4.50;1.90;;;8.60;99.90;;;;;;4955926;28;20038;-81
2022/11/17 13:08:36;;;;;;;3.35;1.77;;;8.70;99.90;;;;;;4956521;28;20043;-81
2022/11/17 13:11:16;;;;;;;3.72;1.92;;;8.70;99.90;;;;;;4973395;28;20391;-80
2022/11/17 13:13:42;;;;;;;4.68;2.30;;;8.70;99.90;;;;;;4973371;28;20042;-80
2022/11/17 13:16:18;;;;;;;3.47;1.95;;;8.70;99.90;;;;;;4955628;28;20050;-80
2022/11/17 13:18:44;;;;;;;4.07;1.98;;;8.70;99.90;;;;;;4973265;28;20522;-81
2022/11/17 13:21:31;;;;;;;3.95;1.95;;;8.70;99.90;;;;;;4957315;28;20506;-81
2022/11/17 13:24:00;;;;;;;5.00;2.30;;;8.70;99.90;;;;;;4953086;28;20043;-80
2022/11/17 13:26:37;;;;;;;4.80;1.98;;;8.70;99.90;;;;;;4957096;28;20050;-81
2022/11/17 13:29:12;;;;;;;4.15;2.10;;;8.70;99.90;;;;;;4956963;28;20039;-81
2022/11/17 13:31:38;;;;;;;3.50;1.90;;;8.80;99.90;;;;;;4958551;28;20062;-81
2022/11/17 13:34:21;;;;;;;6.53;2.25;;;8.80;99.90;;;;;;4973559;28;20047;-81
2022/11/17 13:36:58;;;;;;;4.97;1.85;;;8.80;99.90;;;;;;4971179;28;20499;-81
2022/11/17 13:39:25;;;;;;;5.25;2.10;;;8.80;99.90;;;;;;4955490;28;20097;-81
2022/11/17 13:41:51;;;;;;;5.53;2.33;;;8.80;99.90;;;;;;4973734;28;20051;-81
2022/11/17 13:44:23;;;;;;;5.47;2.70;;;8.90;99.90;;;;;;4955607;28;20103;-80
2022/11/17 13:46:49;;;;;;;6.10;3.40;;;8.90;99.90;;;;;;4967797;28;20093;-81